Garrisonville, Virginia
Current Conditions -  °F | °C
As of 8:56 AM on Thursday 30 Oct 2014 (Local Time) from KNYG Reporting Station
Few Clouds Few Clouds  
Wind Chill: 51°   Ceiling: Unl
Heat Index: 51°   Visibility: 10mi
Dew Point: 37°   Wind: 15mph
Humidity: 59%   Direction: 340°NNW
Pressure: 30.08"   Gusts: 24mph
Location:  38.48°N, 77.43°W
Report Text: KNYG 301256Z 34013G21KT 10SM FEW070 11/03 A3008 RMK AO2 SLP186 T01060028 $
Loading
Personal Weather Stations






























Interactive Weather Map
Tropical Storm Tracking
New forecast layout! Learn more

10-Day Weather Forecast

Advertisements
Track Severe Weather on mobile